Time;durP1;ratioP1;P1;durP2;ratioP2;P2;SDS_P1;SDS_P2;PMS_P1;PMS_P2;Temp;Humidity;BMP_temperature;BMP_pressure;BME280_temperature;BME280_humidity;BME280_pressure;Samples;Min_cycle;Max_cycle;Signal;HPM_P1;HPM_P2
2022/04/19 00:00:14;;;;;;;4.3;2;;;;;;;4.38;69.01563;935.2004;;;;
2022/04/19 00:02:43;;;;;;;3.7;2;;;;;;;4.44;68.47559;935.1883;;;;
2022/04/19 00:05:13;;;;;;;2.3;1.8;;;;;;;4.26;69.03027;935.1814;;;;
2022/04/19 00:07:45;;;;;;;2.7;1.7;;;;;;;4.01;69.78906;935.1409;;;;
2022/04/19 00:10:16;;;;;;;2.5;2;;;;;;;3.75;70.73535;935.1792;;;;
2022/04/19 00:12:47;;;;;;;3.3;2;;;;;;;3.79;70.8418;935.1246;;;;
2022/04/19 00:15:15;;;;;;;3.4;2;;;;;;;3.9;70.35547;935.1297;;;;
2022/04/19 00:17:38;;;;;;;2.6;1.8;;;;;;;3.79;70.69629;935.0018;;;;
2022/04/19 00:20:04;;;;;;;6.6;2.5;;;;;;;3.86;70.41602;935.0308;;;;
2022/04/19 00:22:30;;;;;;;2.4;1.9;;;;;;;3.73;70.93457;934.9938;;;;
2022/04/19 00:24:57;;;;;;;2.6;2.2;;;;;;;3.65;71.12305;934.9827;;;;
2022/04/19 00:27:22;;;;;;;2.1;1.7;;;;;;;3.56;71.45605;934.9286;;;;
2022/04/19 00:29:49;;;;;;;2.2;1.6;;;;;;;3.68;71.21777;934.8797;;;;
2022/04/19 00:32:15;;;;;;;2.3;2;;;;;;;3.8;70.82324;934.7942;;;;
2022/04/19 00:34:40;;;;;;;2.2;1.6;;;;;;;3.93;70.26855;934.876;;;;
2022/04/19 00:37:06;;;;;;;2.1;1.9;;;;;;;3.94;69.94727;934.8577;;;;
2022/04/19 00:39:31;;;;;;;2.2;1.8;;;;;;;3.84;70.16406;934.8192;;;;
2022/04/19 00:41:57;;;;;;;1.9;1.6;;;;;;;3.71;70.46875;934.7599;;;;
2022/04/19 00:44:27;;;;;;;2.5;1.7;;;;;;;3.64;70.82813;934.7722;;;;
2022/04/19 00:46:58;;;;;;;2.5;1.7;;;;;;;3.67;70.83398;934.7375;;;;
2022/04/19 00:49:22;;;;;;;1.7;1.6;;;;;;;3.55;71.28613;934.6929;;;;
2022/04/19 00:51:48;;;;;;;2.1;1.6;;;;;;;3.42;71.76855;934.7086;;;;
2022/04/19 00:54:14;;;;;;;2.4;2;;;;;;;3.4;71.91211;934.6858;;;;
2022/04/19 00:56:41;;;;;;;1.9;1.6;;;;;;;3.32;72.19043;934.6132;;;;
2022/04/19 00:59:06;;;;;;;2.1;1.6;;;;;;;3.27;72.53027;934.6323;;;;
2022/04/19 01:01:36;;;;;;;2.4;1.7;;;;;;;3.33;72.1709;934.5689;;;;
2022/04/19 01:04:05;;;;;;;2;1.8;;;;;;;3.3;72.37793;934.5458;;;;
2022/04/19 01:06:30;;;;;;;2.7;1.7;;;;;;;3.32;72.11133;934.5291;;;;
2022/04/19 01:08:58;;;;;;;2;1.5;;;;;;;3.29;72.43066;934.4911;;;;
2022/04/19 01:13:48;;;;;;;1.9;1.7;;;;;;;3.32;71.95605;934.3694;;;;
2022/04/19 01:16:18;;;;;;;2.9;1.6;;;;;;;3.48;71.38672;934.3753;;;;
2022/04/19 01:18:50;;;;;;;5;1.9;;;;;;;3.45;71.47168;934.3137;;;;
2022/04/19 01:21:15;;;;;;;2.4;1.5;;;;;;;3.37;71.7168;934.1772;;;;
2022/04/19 01:23:43;;;;;;;2.1;1.8;;;;;;;3.22;72.24023;934.1264;;;;
2022/04/19 01:26:14;;;;;;;3;1.9;;;;;;;3.14;72.64355;934.1719;;;;
2022/04/19 01:28:43;;;;;;;2;1.7;;;;;;;3.2;72.4502;934.1625;;;;
2022/04/19 01:31:09;;;;;;;2.3;1.7;;;;;;;3.2;72.51758;934.1468;;;;
2022/04/19 01:33:40;;;;;;;2.9;1.8;;;;;;;3.01;73.13672;934.0326;;;;
2022/04/19 01:36:12;;;;;;;2.5;1.8;;;;;;;2.85;73.99316;934.149;;;;
2022/04/19 01:38:41;;;;;;;2.6;1.6;;;;;;;2.81;74.24609;934.1062;;;;
2022/04/19 01:41:08;;;;;;;2.7;1.9;;;;;;;2.97;73.65723;934.0916;;;;
2022/04/19 01:43:38;;;;;;;2.7;1.8;;;;;;;2.87;74.07617;934.098;;;;
2022/04/19 01:46:05;;;;;;;3.9;2;;;;;;;2.84;74.36328;933.9972;;;;
2022/04/19 01:48:31;;;;;;;2.6;1.8;;;;;;;2.9;74.23926;934.0391;;;;
2022/04/19 01:51:00;;;;;;;2.8;1.9;;;;;;;3.07;73.33594;933.981;;;;
2022/04/19 01:53:27;;;;;;;3.2;1.8;;;;;;;3.07;73.06738;933.954;;;;
2022/04/19 01:55:50;;;;;;;1.9;1.7;;;;;;;3.21;72.6543;933.9263;;;;
2022/04/19 01:58:18;;;;;;;4.5;1.7;;;;;;;3.18;72.55859;933.9738;;;;
2022/04/19 02:00:43;;;;;;;8.2;2.3;;;;;;;3.24;72.35742;933.895;;;;
2022/04/19 02:03:16;;;;;;;2.3;1.5;;;;;;;3.21;72.41895;933.8696;;;;
2022/04/19 02:05:46;;;;;;;1.8;1.7;;;;;;;3.23;72.26465;933.8452;;;;
2022/04/19 02:08:14;;;;;;;2.5;1.7;;;;;;;3.27;72.25;933.8447;;;;
2022/04/19 02:10:39;;;;;;;3.9;2.1;;;;;;;3.15;72.55371;933.8441;;;;
2022/04/19 02:13:06;;;;;;;2.2;1.5;;;;;;;3.04;73.01953;933.8384;;;;
2022/04/19 02:15:34;;;;;;;2.3;1.7;;;;;;;2.94;73.57227;933.7751;;;;
2022/04/19 02:19:03;;;;;;;2.7;1.9;;;;;;;2.87;73.87598;933.7938;;;;
2022/04/19 02:21:32;;;;;;;2;1.7;;;;;;;2.71;74.7334;933.8356;;;;
2022/04/19 02:23:56;;;;;;;2;1.7;;;;;;;2.79;74.5332;933.8285;;;;
2022/04/19 02:26:24;;;;;;;2.9;1.8;;;;;;;2.94;73.78613;933.7391;;;;
2022/04/19 02:28:48;;;;;;;2.6;1.7;;;;;;;3.01;73.37207;933.7966;;;;
2022/04/19 02:31:17;;;;;;;3.5;1.9;;;;;;;3.12;73.02051;933.7841;;;;
2022/04/19 02:33:42;;;;;;;2.5;1.9;;;;;;;3.22;72.61133;933.7881;;;;
2022/04/19 02:36:14;;;;;;;3;2;;;;;;;3.01;73.37305;933.7818;;;;
2022/04/19 02:38:40;;;;;;;2.4;1.7;;;;;;;3.15;73.09277;933.645;;;;
2022/04/19 02:41:05;;;;;;;5.2;2.1;;;;;;;3.15;72.77832;933.6693;;;;
2022/04/19 02:43:31;;;;;;;3.6;1.9;;;;;;;3;73.29199;933.6714;;;;
2022/04/19 02:45:55;;;;;;;2.6;1.6;;;;;;;3;73.30273;933.6603;;;;
2022/04/19 02:48:23;;;;;;;2.5;1.7;;;;;;;3.17;72.52441;933.6252;;;;
2022/04/19 02:50:49;;;;;;;4.6;2.2;;;;;;;3.12;72.74023;933.6497;;;;
2022/04/19 02:53:18;;;;;;;3.4;1.9;;;;;;;3;73.18945;933.6292;;;;
2022/04/19 02:55:48;;;;;;;1.9;1.7;;;;;;;3.09;73.02539;933.548;;;;
2022/04/19 02:58:17;;;;;;;2;1.6;;;;;;;3.17;72.81445;933.6322;;;;
2022/04/19 03:00:43;;;;;;;1.8;1.6;;;;;;;3.28;72.34082;933.628;;;;
2022/04/19 03:03:10;;;;;;;3.1;2.1;;;;;;;3.27;72.10352;933.6347;;;;
2022/04/19 03:05:38;;;;;;;6.3;3.1;;;;;;;3.08;72.76758;933.5942;;;;
2022/04/19 03:08:05;;;;;;;3.4;2.4;;;;;;;3.15;72.69922;933.6473;;;;
2022/04/19 03:10:33;;;;;;;3;2.1;;;;;;;3.22;72.65527;933.6189;;;;
2022/04/19 03:13:03;;;;;;;2.3;1.9;;;;;;;3.19;72.42676;933.6147;;;;
2022/04/19 03:15:38;;;;;;;2.8;2;;;;;;;2.96;73.3623;933.6037;;;;
2022/04/19 03:18:05;;;;;;;2.3;1.8;;;;;;;2.8;74.22168;933.4586;;;;
2022/04/19 03:20:36;;;;;;;2;1.8;;;;;;;2.84;74.38574;933.5481;;;;
2022/04/19 03:27:56;;;;;;;3;2;;;;;;;3.14;73.25879;933.4897;;;;
2022/04/19 03:30:21;;;;;;;3.1;1.7;;;;;;;3.18;72.82715;933.4178;;;;
2022/04/19 03:32:52;;;;;;;2.4;1.7;;;;;;;3.21;72.7998;933.3915;;;;
2022/04/19 03:35:16;;;;;;;2.8;2.1;;;;;;;3.16;72.68945;933.4855;;;;
2022/04/19 03:37:46;;;;;;;3.5;2.6;;;;;;;3.08;73.23828;933.4874;;;;
2022/04/19 03:40:16;;;;;;;2.5;1.8;;;;;;;3.09;73.11621;933.4883;;;;
2022/04/19 03:42:42;;;;;;;2.3;1.9;;;;;;;3.12;73.48047;933.5764;;;;
2022/04/19 03:45:13;;;;;;;4.7;2.4;;;;;;;3.02;73.48535;933.5687;;;;
2022/04/19 03:54:06;;;;;;;3.2;2;;;;;;;3.01;73.82227;933.5631;;;;
2022/04/19 03:56:34;;;;;;;4.1;2.2;;;;;;;2.94;73.9873;933.6376;;;;
2022/04/19 03:58:59;;;;;;;2.8;2.1;;;;;;;2.93;73.98438;933.6569;;;;
2022/04/19 04:02:36;;;;;;;4.6;2.9;;;;;;;2.83;74.91992;933.6169;;;;
2022/04/19 04:05:08;;;;;;;3.4;2.1;;;;;;;2.97;74.53125;933.5953;;;;
2022/04/19 04:07:40;;;;;;;3.2;2.3;;;;;;;3;74.87402;933.5628;;;;
2022/04/19 04:10:13;;;;;;;2.7;2.2;;;;;;;3.05;74.55762;933.6398;;;;
2022/04/19 04:12:43;;;;;;;6;2.3;;;;;;;3.16;74.49707;933.624;;;;
2022/04/19 04:15:16;;;;;;;6.6;3.1;;;;;;;3.18;73.72656;933.5382;;;;
2022/04/19 04:17:41;;;;;;;6.9;2.8;;;;;;;3.17;73.90527;933.6503;;;;
2022/04/19 04:20:06;;;;;;;5.4;2.7;;;;;;;3.18;73.49023;933.627;;;;
2022/04/19 04:22:31;;;;;;;4.3;2.7;;;;;;;3.2;73.1582;933.6031;;;;
2022/04/19 04:25:02;;;;;;;4.1;2.7;;;;;;;3.14;73.02344;933.6305;;;;
2022/04/19 04:27:26;;;;;;;8.2;3.1;;;;;;;3.03;73.66699;933.6337;;;;
2022/04/19 04:29:51;;;;;;;4.7;3.1;;;;;;;2.98;73.90527;933.558;;;;
2022/04/19 04:32:19;;;;;;;6.1;3.1;;;;;;;2.92;74.35352;933.622;;;;
2022/04/19 04:34:44;;;;;;;4.7;3.1;;;;;;;2.82;74.99707;933.6024;;;;
2022/04/19 04:37:11;;;;;;;7.5;3.4;;;;;;;2.95;74.62695;933.6306;;;;
2022/04/19 04:39:36;;;;;;;7.2;3.8;;;;;;;3.07;73.91992;933.6479;;;;
2022/04/19 04:42:06;;;;;;;10;4;;;;;;;2.98;74.24023;933.6097;;;;
2022/04/19 04:44:36;;;;;;;5.3;2.9;;;;;;;2.84;74.62109;933.5806;;;;
2022/04/19 04:49:39;;;;;;;4.5;3;;;;;;;2.8;74.91699;933.6175;;;;
2022/04/19 04:51:56;;;;;;;3.3;2.5;;;;;;;2.8;74.92676;933.6292;;;;
2022/04/19 04:54:22;;;;;;;4.8;2.7;;;;;;;2.84;74.83398;933.527;;;;
2022/04/19 04:56:50;;;;;;;4.3;2.4;;;;;;;2.97;74.54199;933.5803;;;;
2022/04/19 04:59:15;;;;;;;3.1;2.1;;;;;;;3.02;74.19238;933.5539;;;;
2022/04/19 05:01:47;;;;;;;4.1;2.6;;;;;;;2.96;74.2373;933.5619;;;;
2022/04/19 05:04:14;;;;;;;3.8;2.6;;;;;;;3;74.37891;933.5002;;;;
2022/04/19 05:06:40;;;;;;;4.2;2.4;;;;;;;3.03;74.30762;933.6078;;;;
2022/04/19 05:09:08;;;;;;;6;2.4;;;;;;;3.16;73.98047;933.624;;;;
2022/04/19 05:11:33;;;;;;;4.1;2.2;;;;;;;3.13;74.13086;933.5853;;;;
2022/04/19 05:14:01;;;;;;;5.2;2.3;;;;;;;3.2;73.91016;933.6222;;;;
2022/04/19 05:16:26;;;;;;;6;2;;;;;;;3.21;74.13574;933.5502;;;;
2022/04/19 05:18:55;;;;;;;3.7;2.2;;;;;;;3.27;74.05664;933.6135;;;;
2022/04/19 05:21:20;;;;;;;7.4;2.3;;;;;;;3.65;73.26953;933.5146;;;;
2022/04/19 05:23:47;;;;;;;3.3;2;;;;;;;3.82;71.96094;933.5698;;;;
2022/04/19 05:26:12;;;;;;;3.9;2.3;;;;;;;3.72;71.70703;933.577;;;;
2022/04/19 05:28:39;;;;;;;5.1;2.3;;;;;;;3.87;71.66504;933.6113;;;;
2022/04/19 05:31:05;;;;;;;4.7;2.1;;;;;;;4.1;70.86133;933.6136;;;;
2022/04/19 05:33:33;;;;;;;3.5;2;;;;;;;4.06;71.58496;933.5983;;;;
2022/04/19 05:36:04;;;;;;;4.5;2;;;;;;;4.7;69.28223;933.5875;;;;
2022/04/19 05:38:29;;;;;;;3.2;2.1;;;;;;;5.22;66.93066;933.5614;;;;
2022/04/19 05:40:58;;;;;;;3.2;2.1;;;;;;;5.97;64.46191;933.4908;;;;
2022/04/19 05:43:28;;;;;;;2.4;1.7;;;;;;;6.25;62.72852;933.4625;;;;
2022/04/19 05:45:53;;;;;;;3.1;2.2;;;;;;;6.39;62.83887;933.5441;;;;
2022/04/19 05:48:21;;;;;;;3.6;1.4;;;;;;;6.9;61.24902;933.4558;;;;
2022/04/19 05:50:49;;;;;;;3.9;1.9;;;;;;;8.87;55.26465;933.4348;;;;
2022/04/19 05:53:15;;;;;;;6.3;2.3;;;;;;;9.72;52.20508;933.4008;;;;
2022/04/19 05:55:42;;;;;;;18.3;4.6;;;;;;;9.43;52.88867;933.3689;;;;
2022/04/19 05:58:07;;;;;;;8.7;2.4;;;;;;;9.91;51.1123;933.355;;;;
2022/04/19 06:00:36;;;;;;;5.4;2;;;;;;;10.05;50.12402;933.3264;;;;
2022/04/19 06:05:27;;;;;;;4.5;2.6;;;;;;;9.75;51.45605;933.3254;;;;
2022/04/19 06:07:56;;;;;;;3.1;2.1;;;;;;;10.01;50.66699;933.2925;;;;
2022/04/19 06:11:01;;;;;;;5;2.5;;;;;;;9.14;52.63574;933.272;;;;
2022/04/19 06:13:33;;;;;;;5.2;2.2;;;;;;;8.6;54.99121;933.2084;;;;
2022/04/19 06:15:56;;;;;;;4.5;2.3;;;;;;;8.92;53.48438;933.1899;;;;
2022/04/19 06:18:26;;;;;;;3.9;2;;;;;;;8.42;55.85449;933.0639;;;;
2022/04/19 06:20:55;;;;;;;2.8;1.7;;;;;;;8.61;54.71973;933.0175;;;;
2022/04/19 06:23:25;;;;;;;2.4;1.5;;;;;;;9.04;53.5791;933.0378;;;;
2022/04/19 06:25:50;;;;;;;5.6;2.3;;;;;;;8.66;54.30566;932.9893;;;;
2022/04/19 06:28:15;;;;;;;2.5;1.8;;;;;;;9.54;52.00098;933.0206;;;;
2022/04/19 06:30:40;;;;;;;2.7;1.9;;;;;;;11.69;47.08594;932.9983;;;;
2022/04/19 06:33:09;;;;;;;3;1.7;;;;;;;12.8;45.08301;932.9299;;;;
2022/04/19 06:35:36;;;;;;;4.8;3;;;;;;;13.66;41.74609;932.9034;;;;
2022/04/19 06:38:06;;;;;;;2.4;2.2;;;;;;;12.27;45.1084;932.8937;;;;
2022/04/19 06:40:37;;;;;;;3;1.6;;;;;;;12.18;43.79297;932.8365;;;;
2022/04/19 06:43:02;;;;;;;3.1;2.1;;;;;;;15.45;39.74512;932.8491;;;;
2022/04/19 06:45:28;;;;;;;2.4;1.7;;;;;;;17.27;35.89941;932.7867;;;;
2022/04/19 06:47:54;;;;;;;3.4;2.2;;;;;;;16.2;35.12988;932.8172;;;;
2022/04/19 06:50:23;;;;;;;2.9;1.6;;;;;;;16.94;35.76855;932.7764;;;;
2022/04/19 06:52:47;;;;;;;2.9;1.4;;;;;;;16.13;35.06641;932.712;;;;
2022/04/19 06:55:20;;;;;;;2.5;1.3;;;;;;;15.02;37.07617;932.7277;;;;
2022/04/19 06:57:47;;;;;;;2.6;1.1;;;;;;;17.29;32.97949;932.7169;;;;
2022/04/19 07:00:14;;;;;;;1.6;1.4;;;;;;;14.89;36.23438;932.76;;;;
2022/04/19 07:02:48;;;;;;;2.1;1.4;;;;;;;15.27;35.95508;932.6716;;;;
2022/04/19 07:05:17;;;;;;;1.2;1.1;;;;;;;17.91;31.93359;932.556;;;;
2022/04/19 07:07:48;;;;;;;1.6;1.3;;;;;;;16.12;34.62598;932.5811;;;;
2022/04/19 07:16:11;;;;;;;2.1;1.3;;;;;;;21.15;27.27832;932.4897;;;;
2022/04/19 07:18:38;;;;;;;1.8;1.3;;;;;;;16.67;31.76172;932.4537;;;;
2022/04/19 07:28:19;;;;;;;3.2;1.3;;;;;;;20.68;27.04004;932.2825;;;;
2022/04/19 07:30:46;;;;;;;2.8;1.5;;;;;;;18.51;30.59375;932.3563;;;;
2022/04/19 07:33:12;;;;;;;3.2;1.3;;;;;;;18.21;30.16602;932.2856;;;;
2022/04/19 07:35:37;;;;;;;2.4;1.4;;;;;;;20.09;29.93262;932.2787;;;;
2022/04/19 07:38:08;;;;;;;1.4;1.2;;;;;;;22.16;27.00098;932.1876;;;;
2022/04/19 07:40:35;;;;;;;1.7;1.1;;;;;;;23.01;25.61914;932.1998;;;;
2022/04/19 07:42:59;;;;;;;3.2;1.4;;;;;;;24.17;25.02734;932.1421;;;;
2022/04/19 07:45:30;;;;;;;2.1;1.2;;;;;;;25.14;23.29883;932.1042;;;;
2022/04/19 07:47:57;;;;;;;2.3;1.3;;;;;;;20.8;26.3457;932.0731;;;;
2022/04/19 07:50:22;;;;;;;1.3;1.2;;;;;;;22.58;25.17285;932.0733;;;;
2022/04/19 07:52:53;;;;;;;1.3;1.2;;;;;;;20.29;27.10938;932.0644;;;;
2022/04/19 07:55:25;;;;;;;1.3;1.2;;;;;;;21.78;27.10645;932.0341;;;;
2022/04/19 07:57:49;;;;;;;1.4;1.2;;;;;;;23.89;24.7168;932.0184;;;;
2022/04/19 08:00:19;;;;;;;1.6;1.5;;;;;;;25.46;22.13477;931.9459;;;;
2022/04/19 08:02:45;;;;;;;1.6;1.3;;;;;;;24.34;23.29297;931.8815;;;;
2022/04/19 08:05:20;;;;;;;1.6;1.4;;;;;;;25.42;21.27051;931.9261;;;;
2022/04/19 08:07:52;;;;;;;1.3;1.2;;;;;;;23.97;25.05078;931.9563;;;;
2022/04/19 08:10:23;;;;;;;1.9;1.4;;;;;;;25.29;22.44531;931.8677;;;;
2022/04/19 08:12:51;;;;;;;1.8;1.5;;;;;;;26.63;21.29297;931.9084;;;;
2022/04/19 08:15:16;;;;;;;1.8;1.3;;;;;;;26.46;21.93555;931.8732;;;;
2022/04/19 08:17:46;;;;;;;1.9;1.3;;;;;;;25.27;22.7041;931.802;;;;
2022/04/19 08:20:18;;;;;;;2.3;1.2;;;;;;;25.98;22.94141;931.8322;;;;
2022/04/19 08:22:44;;;;;;;2.3;1.4;;;;;;;26.09;23.49121;931.842;;;;
2022/04/19 08:25:10;;;;;;;1.7;1.2;;;;;;;26.91;20.99805;931.7864;;;;
2022/04/19 08:27:33;;;;;;;4.1;1.4;;;;;;;26.45;22.17188;931.772;;;;
2022/04/19 08:30:02;;;;;;;2.6;1.5;;;;;;;27.31;20.80273;931.7559;;;;
2022/04/19 08:32:32;;;;;;;1.8;1.4;;;;;;;26.56;21.12305;931.7701;;;;
2022/04/19 08:34:57;;;;;;;1.6;1.2;;;;;;;26.59;21.77637;931.6961;;;;
2022/04/19 08:37:28;;;;;;;1.5;1.4;;;;;;;26.02;21.96094;931.6211;;;;
2022/04/19 08:39:57;;;;;;;2.7;1.3;;;;;;;24.91;23.42871;931.6457;;;;
2022/04/19 08:42:29;;;;;;;1.7;1.3;;;;;;;25.31;23.48535;931.5804;;;;
2022/04/19 08:44:51;;;;;;;2.5;1.3;;;;;;;26.28;22.81348;931.5722;;;;
2022/04/19 08:47:21;;;;;;;2.4;1.5;;;;;;;26.84;21.50391;931.5468;;;;
2022/04/19 08:49:51;;;;;;;1.6;1.3;;;;;;;26.1;22.99414;931.5642;;;;
2022/04/19 08:52:17;;;;;;;2.3;1.4;;;;;;;25.59;23.29883;931.5676;;;;
2022/04/19 08:59:37;;;;;;;1.3;1.1;;;;;;;24.39;23.62598;931.336;;;;
2022/04/19 09:02:03;;;;;;;1.8;1.2;;;;;;;23.96;25.01563;931.3641;;;;
2022/04/19 09:04:31;;;;;;;1.7;1.5;;;;;;;22.64;25.73926;931.4409;;;;
2022/04/19 09:06:56;;;;;;;1.4;1.3;;;;;;;22.07;27.41797;931.4334;;;;
2022/04/19 09:09:25;;;;;;;1.6;1.4;;;;;;;22.32;27.29297;931.4285;;;;
2022/04/19 09:11:50;;;;;;;2.9;1.3;;;;;;;22.81;26.08984;931.5096;;;;
2022/04/19 09:14:16;;;;;;;1.5;1.4;;;;;;;22.45;25.59961;931.4455;;;;
2022/04/19 09:16:41;;;;;;;3.1;1.4;;;;;;;22.92;26.27246;931.4852;;;;
2022/04/19 09:19:07;;;;;;;3.1;1.4;;;;;;;23.06;25.30566;931.4667;;;;
2022/04/19 09:21:33;;;;;;;1.7;1.3;;;;;;;23.09;24.77832;931.3386;;;;
2022/04/19 09:24:01;;;;;;;2;1.5;;;;;;;21.54;27.03418;931.3788;;;;
2022/04/19 09:26:27;;;;;;;2;1.2;;;;;;;20.56;28.67969;931.3212;;;;
2022/04/19 09:28:53;;;;;;;2.7;1.5;;;;;;;19.78;29.90039;931.348;;;;
2022/04/19 09:31:18;;;;;;;2.5;1.3;;;;;;;19.43;28.83984;931.3795;;;;
2022/04/19 09:33:46;;;;;;;1.9;1.5;;;;;;;18.61;29.87891;931.3567;;;;
2022/04/19 09:36:11;;;;;;;1.8;1.5;;;;;;;18.3;31.36914;931.3105;;;;
2022/04/19 09:38:37;;;;;;;1.8;1.3;;;;;;;17.97;30.68359;931.2679;;;;
2022/04/19 09:41:07;;;;;;;1.9;1.3;;;;;;;18.21;32.83887;931.2847;;;;
2022/04/19 09:43:37;;;;;;;1.8;1.2;;;;;;;18.02;33.0918;931.2831;;;;
2022/04/19 09:46:03;;;;;;;2.2;1.2;;;;;;;17.54;31.97656;931.2425;;;;
2022/04/19 09:48:29;;;;;;;1.6;1.4;;;;;;;17.36;34.66602;931.236;;;;
2022/04/19 09:50:54;;;;;;;1.7;1.3;;;;;;;17.48;32.52832;931.2224;;;;
2022/04/19 09:53:21;;;;;;;2.3;1.4;;;;;;;16.92;33.79688;931.1652;;;;
2022/04/19 09:55:46;;;;;;;2;1.3;;;;;;;16.2;35.16309;931.2349;;;;
2022/04/19 09:58:12;;;;;;;1.9;1.4;;;;;;;15.81;34.16113;931.2662;;;;
2022/04/19 10:00:36;;;;;;;1.3;1.2;;;;;;;16.04;35.31348;931.1589;;;;
2022/04/19 10:08:14;;;;;;;1.7;1.4;;;;;;;15.81;36.51953;931.162;;;;
2022/04/19 10:10:24;;;;;;;2.2;1.5;;;;;;;16.06;37.1416;931.1142;;;;
2022/04/19 10:12:54;;;;;;;1.5;1.3;;;;;;;17.26;33.21973;931.0673;;;;
2022/04/19 10:15:19;;;;;;;2.5;1.3;;;;;;;17.03;33.2959;931.0451;;;;
2022/04/19 10:17:44;;;;;;;1.3;1.2;;;;;;;16.7;34.10352;931.0572;;;;
2022/04/19 10:20:16;;;;;;;2.1;1.3;;;;;;;16.65;34.52832;930.9441;;;;
2022/04/19 10:22:44;;;;;;;1.7;1.4;;;;;;;16.64;35.1875;930.9734;;;;
2022/04/19 10:25:09;;;;;;;1.5;1.4;;;;;;;16.78;34.55078;930.9692;;;;
2022/04/19 10:27:39;;;;;;;1.2;1.1;;;;;;;16.97;34.6582;930.9822;;;;
2022/04/19 10:30:04;;;;;;;1.5;1.4;;;;;;;17.62;34.07129;930.9183;;;;
2022/04/19 10:32:30;;;;;;;1.8;1.2;;;;;;;18.19;32.3252;930.8948;;;;
2022/04/19 10:37:29;;;;;;;2.4;1.5;;;;;;;17.92;33.4668;930.7922;;;;
2022/04/19 10:40:36;;;;;;;1.6;1.4;;;;;;;17.49;32.7959;930.8928;;;;
2022/04/19 10:46:57;;;;;;;2;1.2;;;;;;;16.3;35.17188;930.7675;;;;
2022/04/19 10:49:26;;;;;;;1.4;1.3;;;;;;;16.23;36.3916;930.7428;;;;
2022/04/19 10:51:52;;;;;;;1.7;1.2;;;;;;;16.46;34.02734;930.6828;;;;
2022/04/19 10:54:16;;;;;;;1.9;1.1;;;;;;;16.14;35.5293;930.6796;;;;
2022/04/19 10:56:41;;;;;;;1.4;1.3;;;;;;;16.41;36.12988;930.7029;;;;
2022/04/19 10:59:07;;;;;;;1.4;1.3;;;;;;;16.25;37.4248;930.6111;;;;
2022/04/19 11:01:32;;;;;;;1.4;1.1;;;;;;;16.45;36.83887;930.6997;;;;
2022/04/19 11:04:01;;;;;;;1.3;1.1;;;;;;;16.61;37.44238;930.5961;;;;
2022/04/19 11:06:28;;;;;;;1.6;1.2;;;;;;;16.55;36.00195;930.5767;;;;
2022/04/19 11:08:56;;;;;;;1.9;1.3;;;;;;;16.76;36.05469;930.5298;;;;
2022/04/19 11:11:24;;;;;;;1.8;1.3;;;;;;;17.71;33.11523;930.5666;;;;
2022/04/19 11:13:46;;;;;;;1.3;1.2;;;;;;;17.99;33.32129;930.5308;;;;
2022/04/19 11:16:17;;;;;;;1.9;1.1;;;;;;;17.67;33.91211;930.5193;;;;
2022/04/19 11:18:45;;;;;;;2.4;1.4;;;;;;;17.51;34.82813;930.4361;;;;
2022/04/19 11:21:12;;;;;;;3.1;1.1;;;;;;;18.01;34.42676;930.3152;;;;
2022/04/19 11:23:36;;;;;;;1.4;1.1;;;;;;;17.88;32.12891;930.2405;;;;
2022/04/19 11:26:02;;;;;;;1.5;1.2;;;;;;;17.55;33.21875;930.4517;;;;
2022/04/19 11:28:26;;;;;;;1.3;1.1;;;;;;;17.33;33.15625;930.3909;;;;
2022/04/19 11:30:52;;;;;;;1.3;1.1;;;;;;;17.28;33.68555;930.2703;;;;
2022/04/19 11:33:17;;;;;;;2.3;1.1;;;;;;;17.97;33.84277;930.1851;;;;
2022/04/19 11:35:46;;;;;;;2.8;1.4;;;;;;;17.58;33.67285;930.1497;;;;
2022/04/19 11:38:13;;;;;;;1.6;1.2;;;;;;;17.19;34.90723;930.1631;;;;
2022/04/19 11:47:56;;;;;;;1.8;1.3;;;;;;;16.69;35.01855;929.9547;;;;
2022/04/19 11:50:28;;;;;;;2.4;1.2;;;;;;;16.77;34.80469;930.0593;;;;
2022/04/19 11:52:51;;;;;;;1.6;1.1;;;;;;;16.98;33.61621;930.0505;;;;
2022/04/19 11:55:24;;;;;;;1.4;0.9;;;;;;;17.2;33.63281;929.9689;;;;
2022/04/19 11:57:45;;;;;;;2.4;1.3;;;;;;;17.33;33.89844;929.9774;;;;
2022/04/19 12:00:17;;;;;;;3.2;1.2;;;;;;;17.15;35.44922;930.0098;;;;
2022/04/19 12:02:39;;;;;;;1.4;1.3;;;;;;;16.73;35.71582;929.9109;;;;
2022/04/19 12:05:12;;;;;;;1.2;1.1;;;;;;;17.06;34.31641;929.8621;;;;
2022/04/19 12:07:40;;;;;;;1.7;1.3;;;;;;;18.05;35.1377;929.9942;;;;
2022/04/19 12:10:05;;;;;;;1.3;1.1;;;;;;;19.01;33.63184;929.786;;;;
2022/04/19 12:12:34;;;;;;;1.2;1.1;;;;;;;19.17;32.0127;929.8605;;;;
2022/04/19 12:15:03;;;;;;;1.3;1;;;;;;;18.28;32.13379;929.7413;;;;
2022/04/19 12:17:34;;;;;;;1.3;1.1;;;;;;;17.81;31.94922;929.8333;;;;
2022/04/19 12:20:06;;;;;;;1.3;1.2;;;;;;;17.64;32.49414;929.7036;;;;
2022/04/19 12:22:39;;;;;;;1.3;0.9;;;;;;;17.56;32.05859;929.8389;;;;
2022/04/19 12:25:13;;;;;;;1.2;1.1;;;;;;;17.55;32.16309;929.8767;;;;
2022/04/19 12:27:47;;;;;;;1.7;1.2;;;;;;;17.68;32.5791;929.8323;;;;
2022/04/19 12:30:13;;;;;;;1.6;1.2;;;;;;;18.31;31.68359;929.8273;;;;
2022/04/19 12:32:40;;;;;;;1.4;1.1;;;;;;;18.68;31.14063;929.8508;;;;
2022/04/19 12:35:05;;;;;;;1.1;1;;;;;;;18.59;32.33203;929.7019;;;;
2022/04/19 12:37:34;;;;;;;1.3;1;;;;;;;17.71;34.11328;929.6705;;;;
2022/04/19 12:39:59;;;;;;;1.4;1.2;;;;;;;17.43;33.2207;929.7084;;;;
2022/04/19 12:42:30;;;;;;;1.2;1.1;;;;;;;17.62;31.10059;929.8387;;;;
2022/04/19 12:44:55;;;;;;;1.2;1.1;;;;;;;17.86;30.75684;929.8416;;;;
2022/04/19 12:47:22;;;;;;;2.2;1.2;;;;;;;18.06;31.47949;929.8256;;;;
2022/04/19 12:49:51;;;;;;;2.2;1.1;;;;;;;18.69;33.47949;929.7739;;;;
2022/04/19 12:52:16;;;;;;;1.7;0.9;;;;;;;19.21;30.40918;929.699;;;;
2022/04/19 12:54:44;;;;;;;1.8;1.1;;;;;;;19.56;30.51465;929.6754;;;;
2022/04/19 12:57:09;;;;;;;1.2;1;;;;;;;18.96;31.27637;929.637;;;;
2022/04/19 12:59:36;;;;;;;1.3;1.1;;;;;;;18.16;32.98535;929.6088;;;;
2022/04/19 13:02:01;;;;;;;1.5;0.9;;;;;;;18.02;32.63867;929.5447;;;;
2022/04/19 13:04:30;;;;;;;2.2;1.1;;;;;;;17.55;34.92383;929.5709;;;;
2022/04/19 13:12:45;;;;;;;1.7;1.1;;;;;;;17.5;31.54395;929.7029;;;;
2022/04/19 13:14:13;;;;;;;1.6;1;;;;;;;17.46;33.61816;929.7018;;;;
2022/04/19 13:16:37;;;;;;;1;0.9;;;;;;;17.71;32.97559;929.5849;;;;
2022/04/19 13:19:05;;;;;;;2;1;;;;;;;17.79;30.45117;929.6596;;;;
2022/04/19 13:21:30;;;;;;;1.3;0.9;;;;;;;17.93;30.08887;929.6353;;;;
2022/04/19 13:23:57;;;;;;;2;1.2;;;;;;;17.79;31.25195;929.6298;;;;
2022/04/19 13:26:34;;;;;;;3;1.3;;;;;;;17.82;32.4375;929.6074;;;;
2022/04/19 13:29:05;;;;;;;4;1.1;;;;;;;17.71;34.91406;929.5898;;;;
2022/04/19 13:31:31;;;;;;;1.7;1;;;;;;;17.87;33.35938;929.4053;;;;
2022/04/19 13:34:04;;;;;;;1.2;1.1;;;;;;;17.69;32.9043;929.2892;;;;
2022/04/19 13:36:31;;;;;;;1.4;0.9;;;;;;;17.52;31.92871;929.3602;;;;
2022/04/19 13:38:57;;;;;;;1.5;0.9;;;;;;;18.1;33.96875;929.4189;;;;
2022/04/19 13:41:27;;;;;;;2.8;1.1;;;;;;;18.67;32.2334;929.4448;;;;
2022/04/19 13:43:52;;;;;;;1.4;1.1;;;;;;;18.75;34.16992;929.4037;;;;
2022/04/19 13:46:23;;;;;;;1.4;1;;;;;;;18.89;31.52734;929.5042;;;;
2022/04/19 13:48:53;;;;;;;2.2;1.1;;;;;;;19.21;32.34277;929.4908;;;;
2022/04/19 13:51:18;;;;;;;2.9;1.4;;;;;;;19.57;29.47852;929.4543;;;;
2022/04/19 13:53:48;;;;;;;1.3;1.1;;;;;;;19.22;30.11816;929.4356;;;;
2022/04/19 13:56:18;;;;;;;1.3;1.1;;;;;;;19.23;31.08691;929.4442;;;;
2022/04/19 13:58:43;;;;;;;1.3;1;;;;;;;19.37;32.40137;929.2943;;;;
2022/04/19 14:01:13;;;;;;;1.8;1.1;;;;;;;18.83;31.68652;929.3011;;;;
2022/04/19 14:03:38;;;;;;;1.6;0.9;;;;;;;18.65;31.94043;929.3156;;;;
2022/04/19 14:06:07;;;;;;;1.3;1.2;;;;;;;18.23;31.45703;929.3237;;;;
2022/04/19 14:08:39;;;;;;;1.3;1.2;;;;;;;17.64;31.31055;929.5627;;;;
2022/04/19 14:11:09;;;;;;;1.3;1;;;;;;;18.04;31.89746;929.5402;;;;
2022/04/19 14:13:40;;;;;;;1.8;1.2;;;;;;;18.01;32.48633;929.4854;;;;
2022/04/19 14:16:10;;;;;;;1.3;1.2;;;;;;;18.03;32.48828;929.4125;;;;
2022/04/19 14:18:35;;;;;;;2;1.3;;;;;;;17.02;32.73828;929.4401;;;;
2022/04/19 14:21:05;;;;;;;1.2;1.1;;;;;;;16.71;33.65332;929.5812;;;;
2022/04/19 14:23:31;;;;;;;2;1.1;;;;;;;16.62;33.55371;929.6886;;;;
2022/04/19 14:25:59;;;;;;;1.6;1.3;;;;;;;17.15;33.23535;929.6517;;;;
2022/04/19 14:33:15;;;;;;;1.9;1;;;;;;;17.28;33.37207;929.5977;;;;
2022/04/19 14:33:24;;;;;;;1.4;1.2;;;;;;;17.24;32.32617;929.6099;;;;
2022/04/19 14:35:41;;;;;;;2.7;1.3;;;;;;;17.21;33.32031;929.5213;;;;
2022/04/19 14:38:06;;;;;;;1.3;1.1;;;;;;;17.22;34.38867;929.5302;;;;
2022/04/19 14:40:36;;;;;;;1.5;1.4;;;;;;;16.94;33.78613;929.6103;;;;
2022/04/19 14:43:03;;;;;;;1.7;1.3;;;;;;;16.96;34.28613;929.6006;;;;
2022/04/19 14:45:29;;;;;;;2.4;1.3;;;;;;;16.95;34.77246;929.6236;;;;
2022/04/19 14:47:59;;;;;;;2.2;1.3;;;;;;;17.05;33.28516;929.5823;;;;
2022/04/19 14:50:31;;;;;;;1.1;1;;;;;;;16.93;34.01758;929.6136;;;;
2022/04/19 14:53:00;;;;;;;1.9;1.2;;;;;;;16.91;33.29785;929.5781;;;;
2022/04/19 14:55:24;;;;;;;1.7;1.1;;;;;;;16.95;33.3584;929.6149;;;;
2022/04/19 14:57:51;;;;;;;2.6;1.3;;;;;;;16.9;34.33984;929.6372;;;;
2022/04/19 15:00:26;;;;;;;2.1;1.4;;;;;;;16.66;35.11914;929.69;;;;
2022/04/19 15:02:57;;;;;;;1.4;1.2;;;;;;;16.54;34.95996;929.7332;;;;
2022/04/19 15:05:27;;;;;;;3.2;1.8;;;;;;;16.07;35.29102;929.6421;;;;
2022/04/19 15:07:57;;;;;;;1.3;1.2;;;;;;;16.37;35.01563;929.6876;;;;
2022/04/19 15:10:26;;;;;;;2.8;1.4;;;;;;;16.4;34.55566;929.7019;;;;
2022/04/19 15:12:53;;;;;;;2.2;1.3;;;;;;;16.55;34.85645;929.6556;;;;
2022/04/19 15:15:21;;;;;;;2.2;1.3;;;;;;;16.4;36.22168;929.6713;;;;
2022/04/19 15:17:46;;;;;;;1.7;1.5;;;;;;;16.29;36.60547;929.7289;;;;
2022/04/19 15:20:18;;;;;;;1.5;1.3;;;;;;;16.17;35.72852;929.7864;;;;
2022/04/19 15:22:45;;;;;;;1.9;1.5;;;;;;;15.98;35.90918;929.827;;;;
2022/04/19 15:25:13;;;;;;;3.8;1.9;;;;;;;15.75;36.30664;929.7844;;;;
2022/04/19 15:27:43;;;;;;;1.7;1.4;;;;;;;15.87;36.79004;929.8403;;;;
2022/04/19 15:30:08;;;;;;;2.1;1.5;;;;;;;15.79;36.56348;929.8395;;;;
2022/04/19 15:32:38;;;;;;;1.5;1.4;;;;;;;15.85;36.88086;929.8976;;;;
2022/04/19 15:35:01;;;;;;;3.1;1.8;;;;;;;15.82;36.54395;929.8679;;;;
2022/04/19 15:37:29;;;;;;;2.3;1.7;;;;;;;15.95;36.77441;929.8992;;;;